Time;durP1;ratioP1;P1;durP2;ratioP2;P2;SDS_P1;SDS_P2;PMS_P1;PMS_P2;Temp;Humidity;BMP_temperature;BMP_pressure;BME280_temperature;BME280_humidity;BME280_pressure;Samples;Min_cycle;Max_cycle;Signal;HPM_P1;HPM_P2
2022/05/21 00:02:41;;;;;;;15.60;8.78;;;;;;;18.96;83.28;99881.36;5308319;55;1141344;-73
2022/05/21 00:07:47;;;;;;;15.05;10.40;;;;;;;18.98;85.49;99856.03;5308360;55;1139034;-73
2022/05/21 00:12:53;;;;;;;13.10;9.60;;;;;;;18.98;85.58;99853.35;5308153;55;1141061;-70
2022/05/21 00:18:00;;;;;;;17.60;8.53;;;;;;;19.00;84.12;99861.20;5308451;55;1138946;-74
2022/05/21 00:23:18;;;;;;;14.60;8.88;;;;;;;19.05;85.58;99849.92;5320147;54;1138972;-72
2022/05/21 00:28:25;;;;;;;17.50;9.40;;;;;;;19.14;84.25;99833.52;5308440;55;1139027;-74
2022/05/21 00:33:32;;;;;;;12.18;8.18;;;;;;;19.15;84.04;99825.80;5311657;55;1138849;-75
2022/05/21 00:38:39;;;;;;;12.68;8.30;;;;;;;19.10;84.12;99833.58;5327108;55;1138971;-71
2022/05/21 00:43:59;;;;;;;8.58;6.78;;;;;;;18.98;84.29;99831.08;5342861;54;1138949;-70
2022/05/21 00:49:22;;;;;;;11.22;7.97;;;;;;;18.89;85.14;99821.01;5278870;55;1136883;-72
2022/05/21 00:54:31;;;;;;;11.03;7.80;;;;;;;18.71;88.57;99816.56;5253494;55;1138917;-72
2022/05/21 00:59:55;;;;;;;8.48;7.42;;;;;;;18.58;89.43;99818.59;5251532;55;1139303;-73
2022/05/21 01:04:59;;;;;;;10.45;6.80;;;;;;;18.55;91.78;99813.56;5246036;55;1137097;-71
2022/05/21 01:10:06;;;;;;;8.05;7.25;;;;;;;18.47;93.36;99810.17;5240660;55;1139259;-74
2022/05/21 01:15:17;;;;;;;9.90;8.68;;;;;;;18.41;94.55;99798.36;5207133;55;1136986;-74
2022/05/21 01:20:27;;;;;;;11.97;8.25;;;;;;;18.34;99.97;99806.80;5209912;55;1136889;-71
2022/05/21 01:25:35;;;;;;;8.30;7.50;;;;;;;18.21;100.00;99817.34;5265589;55;1139085;-71
2022/05/21 01:30:45;;;;;;;9.60;8.13;;;;;;;18.14;100.00;99811.91;5298526;55;1136957;-72
2022/05/21 01:35:51;;;;;;;10.13;7.53;;;;;;;18.04;100.00;99804.64;5299673;55;1137174;-73
2022/05/21 01:40:58;;;;;;;8.93;7.78;;;;;;;18.04;100.00;99795.78;5310454;55;1139287;-74
2022/05/21 01:46:05;;;;;;;7.47;6.72;;;;;;;18.07;100.00;99792.24;5300877;55;1136871;-74
2022/05/21 01:51:11;;;;;;;5.77;5.20;;;;;;;18.07;100.00;99786.89;5213609;56;1137106;-73
2022/05/21 01:56:18;;;;;;;5.57;5.10;;;;;;;18.05;100.00;99783.56;5211247;56;1137103;-71
2022/05/21 02:01:25;;;;;;;7.58;5.50;;;;;;;18.05;100.00;99770.19;5211191;56;1136911;-72
2022/05/21 02:06:32;;;;;;;5.60;5.10;;;;;;;18.02;100.00;99773.77;5211326;56;1137264;-71
2022/05/21 02:11:38;;;;;;;6.70;4.12;;;;;;;17.96;100.00;99775.83;5212473;56;1136831;-75
2022/05/21 02:16:45;;;;;;;3.92;3.62;;;;;;;17.88;100.00;99778.91;5214027;55;1137280;-71
2022/05/21 02:21:51;;;;;;;4.53;3.97;;;;;;;17.81;100.00;99787.86;5214707;56;1136798;-71
2022/05/21 02:26:56;;;;;;;5.33;4.80;;;;;;;17.75;100.00;99786.73;5244819;56;1136999;-75
2022/05/21 02:32:02;;;;;;;6.77;4.77;;;;;;;17.67;100.00;99797.53;5257215;55;1136892;-70
2022/05/21 02:42:45;;;;;;;6.43;5.37;;;;;;;17.64;100.00;99804.58;5164483;56;1138915;-73
2022/05/21 02:47:53;;;;;;;6.60;5.87;;;;;;;17.60;100.00;99805.91;5194078;56;1138990;-72
2022/05/21 02:52:58;;;;;;;6.50;5.90;;;;;;;17.55;100.00;99811.82;5169921;55;1139065;-71
2022/05/21 02:58:04;;;;;;;6.60;5.98;;;;;;;17.49;100.00;99829.08;5229624;55;1139555;-70
2022/05/21 03:03:10;;;;;;;5.57;5.07;;;;;;;17.39;100.00;99834.69;5075342;57;1138987;-73
2022/05/21 03:13:39;;;;;;;;;;;;;;;17.10;100.00;99866.13;5186420;56;1141292;-70
2022/05/21 03:18:45;;;;;;;5.30;2.57;;;;;;;16.90;100.00;99890.79;5253579;55;976325;-73
2022/05/21 03:23:51;;;;;;;3.30;1.67;;;;;;;16.66;100.00;99899.73;5244151;55;1136921;-73
2022/05/21 03:28:56;;;;;;;2.70;1.27;;;;;;;16.39;100.00;99908.47;5215132;56;1139024;-72
2022/05/21 03:34:02;;;;;;;1.57;1.23;;;;;;;16.26;100.00;99923.35;5259493;55;1139237;-71
2022/05/21 03:39:08;;;;;;;1.80;1.27;;;;;;;16.15;100.00;99926.72;5290032;55;1138993;-72
2022/05/21 03:44:14;;;;;;;2.07;1.47;;;;;;;16.07;100.00;99920.04;5253176;55;1138939;-72
2022/05/21 03:49:20;;;;;;;5.20;1.20;;;;;;;16.04;100.00;99919.57;5266772;55;1138998;-71
2022/05/21 03:54:26;;;;;;;7.83;1.20;;;;;;;16.00;100.00;99922.23;5219573;56;1139035;-73
2022/05/21 03:59:33;;;;;;;0.90;0.90;;;;;;;15.81;100.00;99909.57;5165097;56;1139016;-72
2022/05/21 04:04:39;;;;;;;0.93;0.90;;;;;;;15.64;100.00;99924.39;5215221;55;1138974;-73
2022/05/21 04:09:45;;;;;;;1.13;1.10;;;;;;;15.53;100.00;99930.03;5297316;55;1139227;-75
2022/05/21 04:14:50;;;;;;;1.47;0.60;;;;;;;15.47;100.00;99919.02;5297630;55;1138989;-72
2022/05/21 04:19:56;;;;;;;1.43;0.73;;;;;;;15.43;100.00;99928.83;5298490;55;1139049;-74
2022/05/21 04:25:02;;;;;;;0.97;0.70;;;;;;;15.45;100.00;99918.34;5310036;55;1138997;-73
2022/05/21 04:30:12;;;;;;;3.10;1.07;;;;;;;15.54;100.00;99929.03;5325325;54;1139035;-73
2022/05/21 04:35:19;;;;;;;4.90;0.70;;;;;;;15.54;100.00;99929.03;5355352;54;1138953;-73
2022/05/21 04:40:25;;;;;;;5.70;0.40;;;;;;;15.52;98.44;99926.53;5357283;54;1139065;-74
2022/05/21 04:45:31;;;;;;;7.00;0.50;;;;;;;15.46;96.92;99929.84;5357260;54;1136911;-74
2022/05/21 04:50:39;;;;;;;3.37;0.50;;;;;;;15.38;95.03;99938.67;5250266;55;1136876;-73
2022/05/21 04:55:45;;;;;;;1.10;0.80;;;;;;;15.36;94.86;99952.66;5210116;56;1136900;-75
2022/05/21 05:00:51;;;;;;;1.10;0.60;;;;;;;15.30;93.64;99958.62;5210512;55;1136895;-74
2022/05/21 05:05:57;;;;;;;0.80;0.37;;;;;;;15.27;92.33;99965.63;5224313;55;1136972;-75
2022/05/21 05:11:04;;;;;;;4.60;0.50;;;;;;;15.22;89.90;99983.09;5221867;55;1136906;-76
2022/05/21 05:16:09;;;;;;;5.73;0.40;;;;;;;15.21;88.94;100002.73;5220657;54;1137150;-72
2022/05/21 05:21:15;;;;;;;7.37;0.93;;;;;;;15.15;87.40;100013.52;5087611;57;1139002;-76
2022/05/21 05:26:22;;;;;;;3.40;0.50;;;;;;;15.17;88.33;100020.86;5234664;55;1138985;-75
2022/05/21 05:31:27;;;;;;;2.67;0.60;;;;;;;15.11;86.19;100010.37;5242766;55;1136927;-72
2022/05/21 05:36:33;;;;;;;2.23;0.63;;;;;;;15.16;82.50;100020.52;5296691;55;1137094;-73
2022/05/21 05:41:39;;;;;;;1.90;0.50;;;;;;;15.16;83.33;100027.17;5247205;55;1136859;-71
2022/05/21 05:46:45;;;;;;;3.80;0.50;;;;;;;15.20;84.32;100031.20;5259557;55;1137121;-75
2022/05/21 05:51:51;;;;;;;3.70;0.70;;;;;;;15.29;84.07;100041.38;5231612;55;1136915;-71
2022/05/21 05:56:57;;;;;;;3.70;0.57;;;;;;;15.39;82.10;100047.42;5068663;57;1137117;-72
2022/05/21 06:07:26;;;;;;;2.97;0.57;;;;;;;15.37;82.90;100066.73;5270233;54;1138948;-74
2022/05/21 06:12:32;;;;;;;0.30;0.30;;;;;;;15.28;81.48;100073.01;5241228;55;1137167;-76
2022/05/21 06:17:39;;;;;;;0.43;0.40;;;;;;;15.30;80.92;100064.36;5231130;55;1136949;-73
2022/05/21 06:22:45;;;;;;;6.40;0.60;;;;;;;15.35;79.15;100079.38;5222494;56;1137245;-74
2022/05/21 06:43:04;;;;;;;0.77;0.73;;;;;;;15.28;79.19;100088.50;5241663;56;46136;-73
2022/05/21 06:48:11;;;;;;;1.17;0.60;;;;;;;14.78;84.59;100113.20;5006600;58;1134897;-70
2022/05/21 06:53:17;;;;;;;4.17;0.70;;;;;;;14.74;85.54;100111.84;5189395;56;1139059;-70
2022/05/21 06:58:22;;;;;;;5.73;0.60;;;;;;;14.77;86.06;100122.67;5110061;57;1139008;-70
2022/05/21 07:03:30;;;;;;;3.40;0.93;;;;;;;14.92;85.99;100136.25;5017502;57;1139002;-73
2022/05/21 07:08:36;;;;;;;4.73;0.87;;;;;;;14.94;84.97;100139.11;4995031;59;1139020;-74
2022/05/21 07:13:43;;;;;;;4.40;1.20;;;;;;;14.96;86.00;100153.59;4943877;58;1139116;-71
2022/05/21 07:18:49;;;;;;;1.33;0.70;;;;;;;15.06;83.55;100141.00;4956757;58;1138999;-76
2022/05/21 07:23:55;;;;;;;2.40;0.70;;;;;;;15.35;81.90;100144.66;4957098;58;1138895;-74
2022/05/21 07:29:00;;;;;;;0.50;0.50;;;;;;;15.45;80.87;100149.37;4957069;58;1139089;-74
2022/05/21 07:34:09;;;;;;;1.63;0.67;;;;;;;15.57;79.20;100176.63;4957111;58;1138976;-72
2022/05/21 07:39:14;;;;;;;5.57;0.50;;;;;;;15.44;78.74;100173.02;4917804;59;1138929;-74
2022/05/21 07:44:19;;;;;;;0.57;0.43;;;;;;;15.43;78.93;100197.49;4888567;59;1139192;-74
2022/05/21 07:49:25;;;;;;;1.23;0.57;;;;;;;15.43;77.96;100199.33;4884210;59;1139145;-75
2022/05/21 07:54:31;;;;;;;0.57;0.53;;;;;;;15.48;79.06;100202.36;4937958;58;1139140;-74
2022/05/21 07:59:38;;;;;;;0.30;0.30;;;;;;;15.45;77.86;100210.17;5023031;58;1139393;-71
2022/05/21 08:04:47;;;;;;;6.70;0.80;;;;;;;15.27;77.58;100232.56;5015493;58;1138995;-73
2022/05/21 08:09:52;;;;;;;0.50;0.50;;;;;;;15.04;77.98;100238.38;5003746;59;1139138;-71
2022/05/21 08:14:58;;;;;;;2.83;0.80;;;;;;;14.88;79.06;100258.70;5008272;57;1139105;-75
2022/05/21 08:20:06;;;;;;;3.40;0.60;;;;;;;14.79;81.43;100265.80;5008315;58;1139014;-74
2022/05/21 08:30:36;;;;;;;4.10;0.60;;;;;;;14.98;82.78;100280.75;5005161;59;1139060;-75
2022/05/21 08:35:42;;;;;;;1.30;0.50;;;;;;;15.41;81.71;100284.79;5004556;58;1139210;-72
2022/05/21 08:41:03;;;;;;;0.63;0.60;;;;;;;15.68;78.88;100273.16;4988941;58;1139044;-75
2022/05/21 08:46:17;;;;;;;0.30;0.30;;;;;;;15.87;78.89;100285.44;5033656;58;1139020;-71
2022/05/21 08:51:28;;;;;;;1.60;0.50;;;;;;;15.68;75.78;100286.49;4989869;58;1136976;-74
2022/05/21 08:56:34;;;;;;;3.73;0.33;;;;;;;15.74;73.07;100308.50;4971308;58;1137029;-73
2022/05/21 09:01:44;;;;;;;1.67;0.50;;;;;;;15.46;69.02;100333.61;4962179;59;1137011;-74
2022/05/21 09:07:03;;;;;;;0.70;0.60;;;;;;;15.26;69.51;100313.48;4971757;58;1137099;-74
2022/05/21 09:12:21;;;;;;;1.80;0.90;;;;;;;15.10;71.61;100351.47;4971306;58;1137016;-73
2022/05/21 09:17:28;;;;;;;0.40;0.40;;;;;;;15.04;72.50;100338.25;4897299;59;1136892;-73
2022/05/21 09:22:34;;;;;;;6.50;0.80;;;;;;;15.16;72.57;100350.00;4971618;58;1137199;-70
2022/05/21 09:27:43;;;;;;;11.60;0.82;;;;;;;15.22;72.71;100356.06;4897098;59;1136977;-72
2022/05/21 09:32:53;;;;;;;3.50;0.73;;;;;;;15.30;72.14;100360.12;4995853;58;1139207;-72
2022/05/21 09:38:15;;;;;;;3.10;0.93;;;;;;;15.45;74.70;100353.25;4922964;59;1134932;-73
2022/05/21 09:48:50;;;;;;;2.53;0.97;;;;;;;16.18;70.27;100380.48;4893042;59;1138985;-72
2022/05/21 09:53:58;;;;;;;9.87;1.00;;;;;;;16.00;71.44;100381.03;4893280;59;1138957;-73
2022/05/21 09:59:18;;;;;;;1.90;0.80;;;;;;;16.00;70.63;100393.03;4892709;60;1139046;-71
2022/05/21 10:04:54;;;;;;;3.72;1.25;;;;;;;15.79;69.01;100392.05;4893045;60;1139115;-71
2022/05/21 10:15:32;;;;;;;8.87;1.00;;;;;;;15.65;71.33;100401.94;4889158;59;1139084;-71
2022/05/21 10:20:45;;;;;;;3.43;0.77;;;;;;;15.76;71.18;100409.19;4853715;59;1139188;-74
2022/05/21 10:26:28;;;;;;;2.63;1.13;;;;;;;15.72;70.42;100412.34;4971005;58;1139077;-69
2022/05/21 10:31:45;;;;;;;2.07;1.27;;;;;;;15.70;70.39;100397.83;4893017;59;1139216;-69
2022/05/21 10:37:22;;;;;;;1.87;0.77;;;;;;;15.83;71.41;100406.25;4893243;59;1137340;-73
2022/05/21 10:42:36;;;;;;;3.63;0.83;;;;;;;16.05;68.98;100414.72;4904068;58;1136993;-74
2022/05/21 10:48:13;;;;;;;2.90;0.83;;;;;;;16.02;70.58;100422.56;5055988;57;1137006;-74
2022/05/21 10:53:44;;;;;;;4.07;1.10;;;;;;;15.88;70.53;100423.13;5055945;58;1137832;-74
2022/05/21 10:59:30;;;;;;;0.97;0.60;;;;;;;15.97;72.29;100433.36;5055933;57;1139025;-71
2022/05/21 11:05:00;;;;;;;5.67;1.10;;;;;;;15.96;70.84;100434.34;5056270;57;1139030;-70
2022/05/21 11:10:41;;;;;;;2.10;1.20;;;;;;;15.90;71.82;100449.63;5055914;57;1139151;-71
2022/05/21 11:16:20;;;;;;;1.40;0.80;;;;;;;15.85;71.26;100448.77;5051515;58;1139214;-74
2022/05/21 11:21:35;;;;;;;5.87;2.40;;;;;;;15.83;72.37;100439.59;5056101;57;1139137;-71
2022/05/21 11:26:52;;;;;;;6.23;1.00;;;;;;;15.87;72.37;100443.29;4995970;58;1139229;-74
2022/05/21 11:37:24;;;;;;;1.23;0.93;;;;;;;15.82;72.99;100449.91;4964489;58;1136998;-73
2022/05/21 11:42:34;;;;;;;3.80;1.67;;;;;;;15.78;73.44;100449.88;4965354;59;1137006;-73
2022/05/21 11:48:18;;;;;;;2.03;0.90;;;;;;;15.78;73.71;100462.37;5120889;57;1136982;-74
2022/05/21 11:53:39;;;;;;;3.50;1.00;;;;;;;15.71;74.27;100464.83;5120948;57;1134923;-75
2022/05/21 11:59:05;;;;;;;4.30;1.50;;;;;;;15.61;74.47;100472.05;5121097;57;1138991;-75
2022/05/21 12:04:43;;;;;;;6.63;1.10;;;;;;;15.55;74.38;100474.01;5130808;57;1139161;-72
2022/05/21 12:10:05;;;;;;;8.70;1.57;;;;;;;15.53;74.54;100489.28;5130747;57;1139008;-74
2022/05/21 12:15:21;;;;;;;2.00;1.05;;;;;;;15.49;75.30;100475.41;5104973;57;1139210;-72
2022/05/21 12:20:49;;;;;;;3.67;1.00;;;;;;;15.47;75.78;100473.88;5105015;57;1138933;-73
2022/05/21 12:25:59;;;;;;;3.07;1.00;;;;;;;15.52;76.11;100468.95;5054608;57;1138383;-75
2022/05/21 12:31:14;;;;;;;3.97;1.03;;;;;;;15.67;76.20;100473.28;4911692;59;1139162;-75
2022/05/21 12:36:50;;;;;;;2.40;1.27;;;;;;;15.76;75.44;100465.68;4963294;59;1139203;-75
2022/05/21 12:41:59;;;;;;;9.77;2.47;;;;;;;15.82;75.00;100473.08;4963276;59;1139013;-72
2022/05/21 12:47:06;;;;;;;1.67;1.10;;;;;;;15.71;74.88;100482.66;4976748;58;1137025;-75
2022/05/21 12:52:13;;;;;;;5.93;1.47;;;;;;;15.61;75.64;100481.37;4907831;59;1136940;-75
2022/05/21 12:57:23;;;;;;;3.23;1.30;;;;;;;15.51;76.22;100471.76;4973321;59;1137117;-72
2022/05/21 13:02:26;;;;;;;4.83;2.30;;;;;;;15.44;77.06;100467.02;4907946;59;1136933;-73
2022/05/21 13:07:49;;;;;;;14.97;2.63;;;;;;;15.42;78.36;100470.85;4907849;59;1137078;-73
2022/05/21 13:12:58;;;;;;;7.57;2.37;;;;;;;15.26;84.53;100480.84;4907086;59;1139011;-72
2022/05/21 13:18:18;;;;;;;3.57;1.67;;;;;;;14.88;86.83;100489.88;4934257;59;1137201;-75
2022/05/21 13:23:36;;;;;;;1.00;1.00;;;;;;;14.48;95.64;100522.11;4998136;58;1137235;-74
2022/05/21 13:28:42;;;;;;;1.40;0.60;;;;;;;14.24;93.47;100505.23;5033842;58;1134896;-74
2022/05/21 13:33:52;;;;;;;1.43;0.73;;;;;;;14.07;96.40;100493.99;5011574;58;1134955;-73
2022/05/21 13:38:57;;;;;;;2.73;1.00;;;;;;;13.82;98.92;100486.61;5005760;58;1148671;-75
2022/05/21 13:44:06;;;;;;;0.93;0.93;;;;;;;13.82;100.00;100487.94;4986497;58;1138960;-75
2022/05/21 13:49:33;;;;;;;0.63;0.60;;;;;;;13.99;100.00;100493.39;4959695;59;1141205;-71
2022/05/21 13:54:42;;;;;;;2.53;0.80;;;;;;;14.11;100.00;100499.38;5136609;57;1141225;-73
2022/05/21 13:59:56;;;;;;;3.73;1.30;;;;;;;14.11;100.00;100501.20;5140792;57;1141099;-74
2022/05/21 14:05:26;;;;;;;2.03;1.23;;;;;;;14.05;100.00;100499.45;5140570;57;1141040;-74
2022/05/21 14:10:48;;;;;;;1.20;1.03;;;;;;;14.03;100.00;100485.48;5140676;57;1141136;-75
2022/05/21 14:15:54;;;;;;;1.80;0.90;;;;;;;14.03;100.00;100485.48;5064753;57;1141135;-72
2022/05/21 14:21:07;;;;;;;1.70;0.83;;;;;;;14.05;100.00;100462.73;5022697;58;1141136;-75
2022/05/21 14:26:31;;;;;;;2.57;0.80;;;;;;;14.09;100.00;100458.30;5023985;58;1141040;-74
2022/05/21 14:31:42;;;;;;;2.23;1.23;;;;;;;14.22;100.00;100454.00;5023666;58;1141076;-74
2022/05/21 14:36:51;;;;;;;1.30;1.10;;;;;;;14.44;100.00;100452.86;5021688;58;1141201;-75
2022/05/21 14:42:02;;;;;;;2.23;1.30;;;;;;;14.70;100.00;100440.55;4966764;58;1141090;-73
2022/05/21 14:52:50;;;;;;;5.60;1.35;;;;;;;14.95;100.00;100445.70;5121429;56;1138950;-74
2022/05/21 14:58:00;;;;;;;2.70;1.37;;;;;;;15.06;100.00;100442.82;5123958;56;1138990;-74
2022/05/21 15:03:06;;;;;;;2.27;1.20;;;;;;;15.12;99.93;100438.73;5124271;57;1139087;-74
2022/05/21 15:08:29;;;;;;;3.40;1.73;;;;;;;15.12;99.36;100435.55;5093432;57;1136766;-75
2022/05/21 15:13:36;;;;;;;3.37;1.70;;;;;;;15.07;99.11;100431.18;5008252;59;1136889;-70
2022/05/21 15:18:43;;;;;;;2.17;1.20;;;;;;;15.00;98.89;100431.91;4956472;59;1136982;-74
2022/05/21 15:23:48;;;;;;;3.03;1.60;;;;;;;14.91;100.00;100441.66;5007802;58;1136980;-73
2022/05/21 15:28:54;;;;;;;3.60;0.98;;;;;;;14.84;100.00;100463.67;5007462;58;1138986;-72
2022/05/21 15:34:00;;;;;;;2.33;0.70;;;;;;;14.38;100.00;100539.87;5007942;59;1139123;-73
2022/05/21 15:39:06;;;;;;;1.47;0.88;;;;;;;13.34;100.00;100525.93;4986247;59;1139025;-74
2022/05/21 15:44:12;;;;;;;2.40;1.00;;;;;;;12.83;100.00;100514.89;5119761;57;1136923;-72
2022/05/21 15:49:18;;;;;;;3.20;1.50;;;;;;;12.70;100.00;100481.11;5120066;57;1137065;-74
2022/05/21 15:54:24;;;;;;;6.00;1.27;;;;;;;12.85;100.00;100465.66;5120411;56;1141142;-74
2022/05/21 15:59:29;;;;;;;1.10;0.80;;;;;;;13.08;100.00;100445.06;5121010;57;1141184;-72
2022/05/21 16:04:35;;;;;;;3.50;1.30;;;;;;;13.26;100.00;100448.27;5114934;57;1141170;-71
2022/05/21 16:09:41;;;;;;;1.23;0.60;;;;;;;13.43;100.00;100455.22;5005242;58;1141127;-73
2022/05/21 16:14:48;;;;;;;0.60;0.60;;;;;;;13.76;100.00;100437.49;5004979;59;1141117;-75
2022/05/21 16:19:54;;;;;;;6.23;0.80;;;;;;;13.76;100.00;100437.49;5004983;58;1141317;-74
2022/05/21 16:25:00;;;;;;;1.83;0.90;;;;;;;13.97;100.00;100446.64;5005258;59;1141308;-70
2022/05/21 16:30:07;;;;;;;0.90;0.90;;;;;;;14.07;100.00;100455.43;5038007;57;1141557;-76
2022/05/21 16:35:13;;;;;;;1.63;1.20;;;;;;;14.07;100.00;100441.64;5037889;57;1141147;-74
2022/05/21 16:40:19;;;;;;;7.27;1.67;;;;;;;14.03;100.00;100438.11;5037791;58;1141196;-74
2022/05/21 16:45:25;;;;;;;2.50;1.10;;;;;;;14.04;100.00;100423.34;5012618;58;1141078;-72
2022/05/21 16:50:31;;;;;;;4.90;1.30;;;;;;;14.13;100.00;100426.11;4966815;59;1141267;-71
2022/05/21 16:55:37;;;;;;;6.40;1.63;;;;;;;14.11;100.00;100422.75;5079950;58;1141247;-75
2022/05/21 17:00:42;;;;;;;1.52;1.20;;;;;;;14.11;100.00;100432.89;5034615;58;1141127;-76
2022/05/21 17:05:49;;;;;;;1.40;1.30;;;;;;;14.13;100.00;100434.08;5037852;58;1141280;-76
2022/05/21 17:10:55;;;;;;;2.07;1.30;;;;;;;14.06;100.00;100432.48;5037926;58;1141241;-76
2022/05/21 17:16:01;;;;;;;2.13;1.47;;;;;;;14.01;100.00;100434.75;5037608;57;1141204;-73
2022/05/21 17:21:07;;;;;;;1.63;1.53;;;;;;;14.00;100.00;100431.73;5037601;58;1141331;-76
2022/05/21 17:26:13;;;;;;;2.57;1.80;;;;;;;14.00;100.00;100432.58;5037690;58;1141133;-74
2022/05/21 17:31:19;;;;;;;2.20;1.67;;;;;;;14.05;100.00;100429.50;5037904;58;1141197;-76
2022/05/21 17:36:25;;;;;;;1.30;1.30;;;;;;;14.14;100.00;100435.77;5037625;58;1141116;-72
2022/05/21 17:41:31;;;;;;;4.30;1.90;;;;;;;14.13;100.00;100436.25;5036771;58;1141118;-72
2022/05/21 17:46:39;;;;;;;2.35;1.50;;;;;;;14.08;100.00;100435.83;4976796;58;1141094;-74
2022/05/21 17:51:45;;;;;;;1.60;1.50;;;;;;;14.09;100.00;100438.84;4988230;59;1141308;-74
2022/05/21 17:56:51;;;;;;;2.77;1.77;;;;;;;14.08;100.00;100430.52;5037769;57;1141090;-75
2022/05/21 18:01:58;;;;;;;3.63;1.60;;;;;;;14.07;100.00;100433.66;5009702;58;1141069;-76
2022/05/21 18:07:05;;;;;;;2.43;1.90;;;;;;;14.06;100.00;100433.80;4975134;59;1141153;-74
2022/05/21 18:12:13;;;;;;;1.15;1.07;;;;;;;14.07;100.00;100431.00;4974420;58;1141411;-76
2022/05/21 18:22:43;;;;;;;8.33;4.80;;;;;;;14.06;100.00;100418.69;5008519;58;1141209;-74
2022/05/21 18:27:49;;;;;;;2.10;1.70;;;;;;;14.11;100.00;100425.41;4972150;58;1141152;-72
2022/05/21 18:32:55;;;;;;;1.23;1.23;;;;;;;14.04;100.00;100411.86;4900766;58;1141137;-77
2022/05/21 18:38:00;;;;;;;2.60;1.50;;;;;;;14.06;100.00;100427.16;4964084;58;1141084;-73
2022/05/21 18:43:07;;;;;;;2.95;1.45;;;;;;;13.96;100.00;100431.17;5033330;58;1141078;-74
2022/05/21 18:48:15;;;;;;;3.07;2.37;;;;;;;13.85;100.00;100430.50;5008471;58;1141099;-73
2022/05/21 18:53:21;;;;;;;13.50;9.20;;;;;;;13.71;100.00;100467.17;4973681;58;1139116;-73
2022/05/21 18:58:30;;;;;;;41.23;25.63;;;;;;;13.65;100.00;100478.84;4925913;59;1141199;-71
2022/05/21 19:03:37;;;;;;;17.70;12.00;;;;;;;13.63;100.00;100487.44;5008180;58;1143258;-73
2022/05/21 19:08:43;;;;;;;5.70;4.37;;;;;;;13.65;100.00;100490.31;5007909;58;1143316;-76
2022/05/21 19:13:49;;;;;;;3.83;3.43;;;;;;;13.64;100.00;100496.61;5008027;57;1139379;-74
2022/05/21 19:19:15;;;;;;;1.13;1.03;;;;;;;13.62;100.00;100498.55;5007781;58;1139020;-76
2022/05/21 19:24:28;;;;;;;8.40;5.73;;;;;;;13.58;100.00;100502.98;5007419;58;1139291;-72
2022/05/21 19:29:35;;;;;;;9.30;3.42;;;;;;;13.49;100.00;100505.13;5007204;58;1139115;-71
2022/05/21 19:34:42;;;;;;;4.67;1.90;;;;;;;13.41;100.00;100513.80;5082493;58;1139057;-74
2022/05/21 19:45:13;;;;;;;6.90;1.63;;;;;;;13.29;100.00;100506.92;5131069;57;1141075;-73
2022/05/21 19:50:22;;;;;;;2.72;1.40;;;;;;;13.29;100.00;100514.89;5112961;57;1141051;-75
2022/05/21 19:55:26;;;;;;;6.87;5.08;;;;;;;13.23;100.00;100521.58;5049723;57;1141147;-73
2022/05/21 20:00:33;;;;;;;5.90;2.97;;;;;;;13.22;100.00;100528.35;5120841;57;1141019;-74
2022/05/21 20:05:43;;;;;;;10.10;3.02;;;;;;;13.18;100.00;100525.61;5121148;57;1141075;-71
2022/05/21 20:10:49;;;;;;;4.33;1.40;;;;;;;13.16;100.00;100518.26;5121108;57;1143193;-73
2022/05/21 20:15:54;;;;;;;4.50;1.70;;;;;;;13.15;100.00;100527.20;5093553;57;1141067;-74
2022/05/21 20:21:02;;;;;;;4.03;2.03;;;;;;;13.11;100.00;100523.12;5121060;57;1141317;-74
2022/05/21 20:26:08;;;;;;;2.30;1.33;;;;;;;13.08;100.00;100521.57;5117080;57;1141107;-70
2022/05/21 20:31:16;;;;;;;2.23;2.07;;;;;;;13.07;100.00;100511.08;5120818;57;1141242;-73
2022/05/21 20:36:23;;;;;;;1.47;1.10;;;;;;;13.04;100.00;100510.86;5120784;57;1141126;-75
2022/05/21 20:41:29;;;;;;;3.77;1.43;;;;;;;13.06;100.00;100517.37;5076865;57;1141059;-73
2022/05/21 20:46:35;;;;;;;2.47;0.90;;;;;;;13.06;100.00;100519.53;5122004;57;1141352;-72
2022/05/21 20:51:41;;;;;;;4.90;1.10;;;;;;;13.01;100.00;100518.60;5033629;58;1141189;-72
2022/05/21 20:56:48;;;;;;;3.97;1.17;;;;;;;12.98;100.00;100519.38;5032546;58;1141236;-76
2022/05/21 21:01:53;;;;;;;4.20;1.57;;;;;;;12.88;100.00;100532.59;5029391;58;1141111;-74
2022/05/21 21:06:59;;;;;;;5.03;1.50;;;;;;;12.88;100.00;100532.59;5025961;58;1141096;-73
2022/05/21 21:12:05;;;;;;;4.13;1.73;;;;;;;12.85;100.00;100533.34;4963193;59;1141175;-74
2022/05/21 21:17:12;;;;;;;6.43;2.57;;;;;;;12.80;100.00;100536.91;5038014;58;1141220;-75
2022/05/21 21:22:18;;;;;;;3.77;1.30;;;;;;;12.81;100.00;100546.06;4991674;58;1141200;-72
2022/05/21 21:27:24;;;;;;;6.13;2.97;;;;;;;12.81;100.00;100544.73;4972732;59;1141155;-74
2022/05/21 21:32:31;;;;;;;5.73;1.80;;;;;;;12.81;100.00;100542.09;5057303;57;1141113;-74
2022/05/21 21:37:37;;;;;;;4.87;1.20;;;;;;;12.80;100.00;100548.36;5041950;57;1141157;-75
2022/05/21 21:42:44;;;;;;;5.70;1.47;;;;;;;12.80;100.00;100547.03;4976412;58;1141036;-73
2022/05/21 21:47:50;;;;;;;6.97;2.57;;;;;;;12.80;100.00;100540.89;4862793;59;1141336;-74
2022/05/21 21:52:55;;;;;;;6.20;1.10;;;;;;;12.82;100.00;100541.11;5054616;58;1141160;-75
2022/05/21 22:03:25;;;;;;;3.13;1.13;;;;;;;12.82;100.00;100545.09;5054725;58;1143233;-73
2022/05/21 22:08:31;;;;;;;2.70;1.33;;;;;;;12.83;100.00;100543.28;5023951;58;1141124;-75
2022/05/21 22:13:36;;;;;;;6.67;1.50;;;;;;;12.79;100.00;100539.20;5054477;58;1141230;-70
2022/05/21 22:18:42;;;;;;;6.87;1.67;;;;;;;12.78;100.00;100538.36;5054723;58;1141066;-72
2022/05/21 22:23:48;;;;;;;4.35;1.35;;;;;;;12.77;100.00;100536.68;5054509;58;1141178;-73
2022/05/21 22:28:54;;;;;;;2.07;1.03;;;;;;;12.76;100.00;100531.02;5054738;58;1141328;-74
2022/05/21 22:34:00;;;;;;;3.47;1.03;;;;;;;12.70;100.00;100531.53;5054737;58;1141126;-71
2022/05/21 22:39:07;;;;;;;4.50;1.00;;;;;;;12.68;100.00;100525.03;5054673;57;1139023;-72
2022/05/21 22:44:14;;;;;;;1.13;0.80;;;;;;;12.71;100.00;100529.23;5030742;58;1139045;-72
2022/05/21 22:49:21;;;;;;;6.10;1.67;;;;;;;12.74;100.00;100524.16;5031359;58;1139261;-72
2022/05/21 22:54:27;;;;;;;11.83;1.60;;;;;;;12.71;100.00;100520.43;5030428;58;1139283;-76
2022/05/21 22:59:33;;;;;;;4.80;1.20;;;;;;;12.63;100.00;100507.36;5030590;58;1141053;-70
2022/05/21 23:04:39;;;;;;;2.93;1.20;;;;;;;12.63;100.00;100527.74;5030886;58;1139074;-75
2022/05/21 23:09:45;;;;;;;2.30;1.63;;;;;;;12.56;100.00;100520.78;5042897;58;1138955;-71
2022/05/21 23:20:13;;;;;;;;;;;;;;;12.53;100.00;100524.17;5046815;58;1139243;-72
2022/05/21 23:25:20;;;;;;;1.63;1.03;;;;;;;12.52;100.00;100523.37;4985931;57;976292;-73
2022/05/21 23:30:26;;;;;;;1.90;0.90;;;;;;;12.52;100.00;100519.88;5031389;58;1136972;-75
2022/05/21 23:35:31;;;;;;;1.27;0.90;;;;;;;12.48;100.00;100520.61;5022214;58;1139123;-73
2022/05/21 23:40:40;;;;;;;2.33;0.90;;;;;;;12.41;100.00;100521.25;4962201;58;1139419;-75
2022/05/21 23:45:46;;;;;;;3.63;0.93;;;;;;;12.30;100.00;100522.17;5114872;57;1137027;-72
2022/05/21 23:50:53;;;;;;;2.03;0.97;;;;;;;12.22;100.00;100519.34;5215593;56;1136952;-74
2022/05/21 23:56:00;;;;;;;8.00;2.35;;;;;;;12.17;100.00;100521.53;5231366;56;1141119;-76
